Time;durP1;ratioP1;P1;durP2;ratioP2;P2;SDS_P1;SDS_P2;PMS_P1;PMS_P2;Temp;Humidity;BMP_temperature;BMP_pressure;BME280_temperature;BME280_humidity;BME280_pressure;Samples;Min_cycle;Max_cycle;Signal;HPM_P1;HPM_P2
2021/05/11 00:01:37;;;;;;;4.53;3.67;;;;;;;14.05;49.66;99234.51;529555;1101;116805;-62
2021/05/11 00:11:42;;;;;;;5.10;3.73;;;;;;;13.99;50.04;99225.30;528104;1097;115989;-62
2021/05/11 00:21:46;;;;;;;6.93;4.00;;;;;;;13.93;50.66;99224.98;512334;1096;117373;-61
2021/05/11 00:31:51;;;;;;;4.60;3.40;;;;;;;13.78;50.80;99221.83;517521;1104;116082;-62
2021/05/11 00:41:56;;;;;;;7.70;4.40;;;;;;;13.64;51.28;99226.45;512797;1104;117101;-61
2021/05/11 00:52:08;;;;;;;4.57;3.70;;;;;;;13.50;51.61;99216.22;511489;1101;116046;-61
2021/05/11 01:02:15;;;;;;;4.30;3.90;;;;;;;13.37;52.01;99216.34;521882;1101;116726;-60
2021/05/11 01:12:20;;;;;;;4.77;3.63;;;;;;;13.27;52.31;99211.84;529528;1101;116414;-61
2021/05/11 01:43:56;;;;;;;4.60;3.90;;;;;;;13.03;52.94;99186.48;528728;1101;117281;-61
2021/05/11 01:43:57;;;;;;;5.70;3.90;;;;;;;12.97;53.09;99187.00;529476;1101;116748;-61
2021/05/11 01:54:32;;;;;;;6.43;4.20;;;;;;;12.90;53.46;99198.98;529063;1101;116213;-61
2021/05/11 02:25:35;;;;;;;6.60;4.40;;;;;;;12.67;54.29;99183.22;529357;1101;115594;-61
2021/05/11 02:35:44;;;;;;;5.87;4.20;;;;;;;12.55;54.77;99177.14;528493;1102;117005;-61
2021/05/11 02:45:49;;;;;;;5.00;4.60;;;;;;;12.50;54.88;99176.66;529233;1101;116274;-63
2021/05/11 02:55:54;;;;;;;4.87;4.33;;;;;;;12.47;55.17;99172.48;526277;1101;118383;-60
2021/05/11 03:05:58;;;;;;;5.37;4.83;;;;;;;12.46;55.40;99176.05;528709;1101;116298;-61
2021/05/11 03:16:04;;;;;;;7.23;4.20;;;;;;;12.54;55.33;99178.11;529248;1101;116558;-63
2021/05/11 03:26:13;;;;;;;5.47;3.93;;;;;;;12.60;55.54;99174.97;528554;1101;116546;-61
2021/05/11 03:36:17;;;;;;;4.40;4.00;;;;;;;12.68;55.51;99171.72;529635;1101;116363;-64
2021/05/11 03:46:22;;;;;;;6.57;4.00;;;;;;;12.87;55.31;99165.84;529361;1101;115906;-63
2021/05/11 03:56:30;;;;;;;5.00;3.70;;;;;;;13.06;54.98;99161.69;518158;1101;116396;-61
2021/05/11 04:06:35;;;;;;;4.65;3.95;;;;;;;13.47;54.62;99153.18;529473;1101;115902;-62
2021/05/11 04:16:41;;;;;;;6.20;4.43;;;;;;;20.79;48.27;99147.41;529230;1104;115813;-62
2021/05/11 04:26:46;;;;;;;8.13;4.07;;;;;;;24.93;39.61;99140.80;525245;1101;116438;-62
2021/05/11 04:36:53;;;;;;;4.90;3.50;;;;;;;19.77;41.29;99139.09;529349;1101;116808;-63
2021/05/11 04:47:02;;;;;;;7.80;3.93;;;;;;;20.24;43.32;99147.33;529148;1101;118423;-63
2021/05/11 04:57:13;;;;;;;4.50;3.43;;;;;;;29.30;34.94;99130.00;529637;1101;116497;-62
2021/05/11 05:07:19;;;;;;;5.10;4.27;;;;;;;34.36;28.88;99131.96;527409;1102;116039;-63
2021/05/11 05:17:25;;;;;;;3.77;3.40;;;;;;;37.15;24.90;99126.14;528835;1101;116269;-65
2021/05/11 05:27:39;;;;;;;4.13;3.40;;;;;;;39.00;21.83;99121.47;529354;1101;116520;-64
2021/05/11 05:37:43;;;;;;;3.75;3.30;;;;;;;40.68;19.53;99112.41;529366;1101;115709;-64
2021/05/11 05:47:52;;;;;;;5.40;3.85;;;;;;;42.34;18.06;99114.32;528705;1101;116968;-63
2021/05/11 05:57:57;;;;;;;5.65;3.85;;;;;;;44.34;16.73;99100.55;529246;1104;116532;-65
2021/05/11 06:08:02;;;;;;;5.93;3.00;;;;;;;45.34;15.44;99096.14;524158;1097;116119;-62
2021/05/11 06:18:08;;;;;;;4.88;3.68;;;;;;;47.22;14.13;99086.16;511092;1097;157784;-64
2021/05/11 06:28:13;;;;;;;6.15;3.00;;;;;;;47.07;12.91;99082.20;511344;1104;116468;-65
2021/05/11 06:38:20;;;;;;;7.58;3.20;;;;;;;48.92;12.83;99073.13;527154;1101;116148;-66
2021/05/11 06:48:26;;;;;;;3.85;3.50;;;;;;;49.63;12.17;99063.55;528388;1097;115480;-68
2021/05/11 06:58:31;;;;;;;6.23;4.53;;;;;;;50.86;11.20;99060.63;511300;1097;115936;-65
2021/05/11 07:08:38;;;;;;;5.07;4.63;;;;;;;50.20;10.99;99061.88;527707;1104;117460;-68
2021/05/11 07:18:44;;;;;;;5.28;4.55;;;;;;;49.23;11.07;99045.39;529260;1104;116181;-68
2021/05/11 07:29:02;;;;;;;5.63;5.23;;;;;;;48.27;10.92;99054.38;529189;1101;117153;-67
2021/05/11 07:39:07;;;;;;;4.80;4.50;;;;;;;48.79;10.70;99046.61;529236;1102;116349;-66
2021/05/11 08:10:09;;;;;;;6.07;2.83;;;;;;;34.72;16.98;99043.20;529101;1101;118979;-57
2021/05/11 08:20:31;;;;;;;6.35;3.18;;;;;;;30.45;21.83;99020.42;528587;1101;116497;-56
2021/05/11 08:30:37;;;;;;;6.93;2.85;;;;;;;28.97;23.59;99009.76;529163;1102;116939;-68
2021/05/11 08:40:42;;;;;;;5.93;2.30;;;;;;;27.45;25.65;99033.70;529455;1101;116048;-65
2021/05/11 08:50:50;;;;;;;4.30;1.83;;;;;;;26.90;26.77;99010.17;528513;1102;116334;-65
2021/05/11 09:32:28;;;;;;;3.43;2.40;;;;;;;26.54;27.73;98994.47;528726;1101;116747;-64
2021/05/11 10:55:39;;;;;;;3.30;2.10;;;;;;;26.18;29.25;98971.70;529192;1104;116362;-61
2021/05/11 11:05:46;;;;;;;5.80;1.63;;;;;;;26.34;29.09;98970.39;528610;1101;116354;-61
2021/05/11 11:15:50;;;;;;;;;;;;;;;26.47;29.55;98952.50;529230;1102;116340;-61
2021/05/11 11:26:23;;;;;;;3.10;1.70;;;;;;;26.60;29.24;98936.23;529469;1101;101435;-61
2021/05/11 11:36:32;;;;;;;2.70;2.10;;;;;;;26.51;28.56;98935.70;529592;1101;117013;-61
2021/05/11 11:46:38;;;;;;;4.20;1.73;;;;;;;26.49;28.57;98942.33;529435;1101;116181;-62
2021/05/11 12:07:11;;;;;;;3.07;2.17;;;;;;;26.70;28.97;98898.88;528777;1097;117034;-60
2021/05/11 12:17:17;;;;;;;3.37;1.90;;;;;;;26.78;28.78;98907.70;525488;1101;116328;-62
2021/05/11 12:27:23;;;;;;;4.33;1.90;;;;;;;27.01;28.28;98893.63;529217;1094;116567;-62
2021/05/11 12:37:44;;;;;;;4.80;2.27;;;;;;;27.23;28.21;98887.80;526767;1096;116301;-61
2021/05/11 12:47:52;;;;;;;2.20;1.80;;;;;;;27.17;27.45;98885.99;517300;1104;116219;-62
2021/05/11 12:58:10;;;;;;;2.60;1.75;;;;;;;27.25;27.41;98874.92;529547;1101;115818;-61
2021/05/11 13:29:20;;;;;;;2.07;1.60;;;;;;;27.40;27.45;98847.58;521631;1101;117669;-64
2021/05/11 13:39:25;;;;;;;3.47;1.70;;;;;;;27.43;27.91;98825.56;529516;1101;117083;-62
2021/05/11 13:49:30;;;;;;;6.03;1.47;;;;;;;27.63;27.24;98808.33;529465;1101;117621;-63
2021/05/11 14:09:59;;;;;;;4.53;1.80;;;;;;;27.72;27.13;98792.63;525816;1101;116620;-68
2021/05/11 14:20:05;;;;;;;3.40;1.50;;;;;;;27.86;27.10;98807.55;528737;1101;116351;-65
2021/05/11 14:30:11;;;;;;;3.03;1.40;;;;;;;27.84;27.15;98785.38;529368;1101;116336;-75
2021/05/11 14:40:17;;;;;;;4.43;2.47;;;;;;;27.84;26.93;98761.11;529614;1101;116742;-63
2021/05/11 14:50:26;;;;;;;3.20;1.50;;;;;;;27.87;27.22;98751.74;528500;1101;116189;-64
2021/05/11 15:00:31;;;;;;;3.60;1.83;;;;;;;27.94;27.27;98747.88;529782;1101;115886;-65
2021/05/11 15:10:36;;;;;;;6.50;2.07;;;;;;;27.91;27.98;98742.13;529338;1101;116434;-59
2021/05/11 15:20:42;;;;;;;1.53;1.43;;;;;;;27.79;28.00;98717.85;528552;1102;116247;-59
2021/05/11 15:30:48;;;;;;;5.30;2.33;;;;;;;27.69;27.95;98721.09;529115;1104;115954;-59
2021/05/11 15:40:53;;;;;;;7.90;2.07;;;;;;;27.64;28.26;98719.09;525343;1101;116110;-60
2021/05/11 15:50:58;;;;;;;5.70;2.00;;;;;;;27.56;28.39;98719.45;518356;1101;116526;-58
2021/05/11 16:01:03;;;;;;;2.60;1.50;;;;;;;27.49;28.71;98708.75;529651;1101;116705;-59
2021/05/11 16:11:08;;;;;;;1.80;1.63;;;;;;;27.39;29.03;98697.70;528539;1102;116969;-58
2021/05/11 16:21:13;;;;;;;5.13;1.80;;;;;;;27.23;28.87;98691.91;525493;1101;116082;-57
2021/05/11 16:31:19;;;;;;;5.37;1.87;;;;;;;27.10;28.96;98687.55;511845;1101;20002309;-57
2021/05/11 16:41:24;;;;;;;4.85;1.75;;;;;;;26.90;28.83;98685.14;528683;1101;117314;-58
2021/05/11 16:51:29;;;;;;;4.30;1.87;;;;;;;26.85;29.25;98674.19;529417;1101;116607;-58
2021/05/11 17:01:35;;;;;;;6.15;1.90;;;;;;;28.01;27.82;98680.31;514319;1102;115979;-59
2021/05/11 17:11:40;;;;;;;5.20;1.63;;;;;;;26.76;29.10;98687.14;525486;1101;116562;-59
2021/05/11 17:21:45;;;;;;;3.57;2.03;;;;;;;26.21;29.31;98679.93;529242;1101;118213;-59
2021/05/11 17:31:52;;;;;;;3.50;2.00;;;;;;;26.00;29.76;98677.39;529489;1101;117032;-59
2021/05/11 17:41:58;;;;;;;4.80;2.27;;;;;;;25.44;30.50;98689.84;515665;1097;115809;-58
2021/05/11 17:52:04;;;;;;;4.37;2.20;;;;;;;24.93;32.17;98696.97;529217;1103;115784;-59
2021/05/11 18:02:11;;;;;;;5.00;2.50;;;;;;;24.40;33.92;98701.46;525505;1104;116320;-58
2021/05/11 18:12:16;;;;;;;3.40;3.08;;;;;;;23.95;35.01;98705.63;529283;1101;117041;-59
2021/05/11 18:22:22;;;;;;;6.47;2.93;;;;;;;23.51;36.21;98719.45;529208;1101;116387;-58
2021/05/11 18:32:30;;;;;;;9.10;3.40;;;;;;;23.09;37.21;98718.72;528744;1101;116380;-58
2021/05/11 18:42:34;;;;;;;;;;;;;;;22.79;37.82;98730.55;529460;1101;117866;-59
2021/05/11 18:52:40;;;;;;;3.30;3.00;;;;;;;22.52;37.83;98733.11;529757;1101;102491;-59
2021/05/11 19:02:46;;;;;;;6.63;2.67;;;;;;;22.25;37.91;98740.11;528450;1101;115900;-59
2021/05/11 19:12:51;;;;;;;4.37;3.10;;;;;;;22.15;37.68;98735.09;529512;1101;116600;-60
2021/05/11 19:22:56;;;;;;;6.43;3.03;;;;;;;21.93;37.77;98732.48;529192;1101;116175;-59
2021/05/11 19:33:03;;;;;;;4.53;2.67;;;;;;;21.73;37.92;98747.52;503808;1101;10114295;-59
2021/05/11 19:43:08;;;;;;;3.60;2.70;;;;;;;21.44;38.43;98747.42;529459;1101;117228;-59
2021/05/11 19:53:13;;;;;;;5.23;2.77;;;;;;;21.16;38.73;98752.66;529023;1101;116376;-59
2021/05/11 20:03:19;;;;;;;4.63;2.40;;;;;;;20.95;39.56;98741.77;526282;1101;116598;-59
2021/05/11 20:13:24;;;;;;;8.63;2.87;;;;;;;20.75;39.24;98746.80;529441;1101;116460;-60
2021/05/11 20:23:29;;;;;;;3.53;2.60;;;;;;;20.53;40.09;98749.38;528817;1101;117393;-58
2021/05/11 20:33:36;;;;;;;6.30;2.50;;;;;;;20.28;40.14;98741.64;529237;1101;116424;-59
2021/05/11 20:43:41;;;;;;;3.73;2.83;;;;;;;20.02;40.37;98742.90;525080;1096;116574;-60
2021/05/11 20:53:47;;;;;;;5.93;2.30;;;;;;;19.77;41.11;98749.42;527978;1101;116272;-56
2021/05/11 21:03:53;;;;;;;6.20;2.30;;;;;;;19.63;41.29;98745.69;528756;1101;115785;-61
2021/05/11 21:13:58;;;;;;;4.37;2.37;;;;;;;19.48;41.36;98742.96;527788;1096;116236;-61
2021/05/11 21:24:03;;;;;;;6.17;2.63;;;;;;;19.30;41.25;98747.56;518774;1101;116639;-60
2021/05/11 21:34:09;;;;;;;3.90;2.43;;;;;;;19.12;41.33;98733.72;529304;1101;117331;-61
2021/05/11 21:44:14;;;;;;;5.40;2.47;;;;;;;18.86;41.75;98754.25;524141;1104;118085;-60
2021/05/11 21:54:20;;;;;;;4.23;2.10;;;;;;;18.54;42.21;98756.02;529345;1101;116990;-60
2021/05/11 22:04:25;;;;;;;5.67;3.13;;;;;;;18.29;42.85;98744.61;529087;1102;115613;-60
2021/05/11 22:14:30;;;;;;;6.50;2.40;;;;;;;18.08;43.26;98740.68;528692;1101;116718;-61
2021/05/11 22:24:35;;;;;;;4.73;2.00;;;;;;;17.89;43.51;98734.68;529528;1101;115754;-60
2021/05/11 22:34:40;;;;;;;4.43;2.33;;;;;;;17.73;43.65;98729.39;529697;1101;115657;-60
2021/05/11 22:44:45;;;;;;;7.17;2.80;;;;;;;17.58;43.91;98721.25;528474;1101;115715;-60
2021/05/11 22:54:50;;;;;;;3.63;2.87;;;;;;;17.44;44.11;98720.06;529579;1101;116251;-61
2021/05/11 23:04:55;;;;;;;4.37;2.40;;;;;;;17.32;44.11;98716.91;529383;1101;116209;-61
2021/05/11 23:15:00;;;;;;;5.33;2.80;;;;;;;17.21;44.10;98712.73;528650;1101;116195;-60
2021/05/11 23:25:07;;;;;;;5.30;2.73;;;;;;;17.03;44.39;98708.41;526136;1101;115882;-61
2021/05/11 23:35:14;;;;;;;4.87;2.57;;;;;;;16.83;44.74;98704.33;528744;1101;116311;-61
2021/05/11 23:45:21;;;;;;;5.50;3.40;;;;;;;16.60;45.21;98707.55;529299;1101;116334;-60
2021/05/11 23:55:26;;;;;;;3.57;2.70;;;;;;;16.44;45.47;98705.66;529345;1101;116526;-60
